createdAt,value
2023-03-17T00:01:09.836Z,6.70
2023-03-17T00:03:38.456Z,6.93
2023-03-17T00:06:05.732Z,6.35
2023-03-17T00:08:34.308Z,5.88
2023-03-17T00:11:01.100Z,6.47
2023-03-17T00:13:28.528Z,6.22
2023-03-17T00:16:02.567Z,6.32
2023-03-17T00:18:31.665Z,5.50
2023-03-17T00:20:58.784Z,7.22
2023-03-17T00:23:25.533Z,4.97
2023-03-17T00:25:53.553Z,5.07
2023-03-17T00:28:25.626Z,5.75
2023-03-17T00:30:56.760Z,5.13
2023-03-17T00:33:26.519Z,5.38
2023-03-17T00:35:53.132Z,5.43
2023-03-17T00:38:21.484Z,5.18
2023-03-17T00:40:48.870Z,4.43
2023-03-17T00:43:15.439Z,5.95
2023-03-17T00:45:42.591Z,5.85
2023-03-17T00:48:20.856Z,5.50
2023-03-17T00:50:49.715Z,5.65
2023-03-17T00:53:18.905Z,5.35
2023-03-17T00:55:46.104Z,5.03
2023-03-17T00:58:32.615Z,4.57
2023-03-17T01:00:59.847Z,5.63
2023-03-17T01:03:27.595Z,5.22
2023-03-17T01:05:57.772Z,4.82
2023-03-17T01:08:25.763Z,5.00
2023-03-17T01:10:52.818Z,3.67
2023-03-17T01:13:19.526Z,6.78
2023-03-17T01:15:47.742Z,4.85
2023-03-17T01:18:16.313Z,3.97
2023-03-17T01:20:43.306Z,4.68
2023-03-17T01:23:10.823Z,5.60
2023-03-17T01:25:38.235Z,4.68
2023-03-17T01:28:05.742Z,4.20
2023-03-17T01:30:38.526Z,4.20
2023-03-17T01:33:08.476Z,6.00
2023-03-17T01:35:36.875Z,11.20
2023-03-17T01:38:04.721Z,9.65
2023-03-17T01:40:34.753Z,11.07
2023-03-17T01:43:10.242Z,7.40
2023-03-17T01:46:11.781Z,6.97
2023-03-17T01:49:29.446Z,7.45
2023-03-17T01:52:10.291Z,6.82
2023-03-17T01:54:45.184Z,5.43
2023-03-17T01:57:13.585Z,5.75
2023-03-17T01:59:47.631Z,5.53
2023-03-17T02:02:19.030Z,7.45
2023-03-17T02:04:45.727Z,5.90
2023-03-17T02:07:12.602Z,6.40
2023-03-17T02:09:41.391Z,6.90
2023-03-17T02:12:09.213Z,6.75
2023-03-17T02:14:36.469Z,5.38
2023-03-17T02:17:03.256Z,6.18
2023-03-17T02:19:30.816Z,4.75
2023-03-17T02:21:58.621Z,5.45
2023-03-17T02:24:35.403Z,5.35
2023-03-17T02:27:14.708Z,5.50
2023-03-17T02:29:41.995Z,5.28
2023-03-17T02:32:10.028Z,5.80
2023-03-17T02:34:37.321Z,4.15
2023-03-17T02:37:05.006Z,5.20
2023-03-17T02:39:32.248Z,5.15
2023-03-17T02:41:58.916Z,5.57
2023-03-17T02:44:27.050Z,4.63
2023-03-17T02:46:54.011Z,4.57
2023-03-17T02:49:21.110Z,4.88
2023-03-17T02:51:48.128Z,4.60
2023-03-17T02:54:14.934Z,4.18
2023-03-17T02:56:44.835Z,5.07
2023-03-17T02:59:11.738Z,5.30
2023-03-17T03:01:39.750Z,4.15
2023-03-17T03:04:07.177Z,4.05
2023-03-17T03:06:33.859Z,4.40
2023-03-17T03:09:00.484Z,4.45
2023-03-17T03:11:27.399Z,4.90
2023-03-17T03:13:54.325Z,3.97
2023-03-17T03:16:20.928Z,5.07
2023-03-17T03:18:47.832Z,4.00
2023-03-17T03:21:14.549Z,4.15
2023-03-17T03:23:41.420Z,3.97
2023-03-17T03:26:07.970Z,4.10
2023-03-17T03:28:34.797Z,3.28
2023-03-17T03:31:01.658Z,3.90
2023-03-17T03:33:28.511Z,4.10
2023-03-17T03:35:55.245Z,4.53
2023-03-17T03:38:21.899Z,4.40
2023-03-17T03:40:48.638Z,5.60
2023-03-17T03:43:22.903Z,3.65
2023-03-17T03:45:50.746Z,6.50
2023-03-17T03:48:17.427Z,4.63
2023-03-17T03:50:44.118Z,4.40
2023-03-17T03:53:10.762Z,3.30
2023-03-17T03:55:37.368Z,4.38
2023-03-17T03:58:04.002Z,3.30
2023-03-17T04:00:30.823Z,4.40
2023-03-17T04:02:57.656Z,4.93
2023-03-17T04:05:24.470Z,5.90
2023-03-17T04:07:51.118Z,5.57
2023-03-17T04:10:17.806Z,5.20
2023-03-17T04:12:44.712Z,5.80
2023-03-17T04:15:15.259Z,5.18
2023-03-17T04:17:42.512Z,5.63
2023-03-17T04:20:10.683Z,5.70
2023-03-17T04:22:37.257Z,6.40
2023-03-17T04:25:04.097Z,4.90
2023-03-17T04:27:30.768Z,4.35
2023-03-17T04:29:57.375Z,9.02
2023-03-17T04:32:26.029Z,4.55
2023-03-17T04:34:53.643Z,4.63
2023-03-17T04:37:20.558Z,5.53
2023-03-17T04:39:47.442Z,4.35
2023-03-17T04:42:14.294Z,5.07
2023-03-17T04:44:41.235Z,4.80
2023-03-17T04:47:07.811Z,4.65
2023-03-17T04:49:34.369Z,3.97
2023-03-17T04:52:01.447Z,5.25
2023-03-17T04:54:28.144Z,5.22
2023-03-17T04:56:54.874Z,4.75
2023-03-17T04:59:21.794Z,5.07
2023-03-17T05:01:48.420Z,4.45
2023-03-17T05:04:28.878Z,5.82
2023-03-17T05:06:58.284Z,3.45
2023-03-17T05:09:26.701Z,4.70
2023-03-17T05:11:53.257Z,5.00
2023-03-17T05:14:20.497Z,5.00
2023-03-17T05:16:48.470Z,4.20
2023-03-17T05:19:15.594Z,5.05
2023-03-17T05:21:42.762Z,5.68
2023-03-17T05:24:09.508Z,4.57
2023-03-17T05:26:36.288Z,5.05
2023-03-17T05:29:02.921Z,5.70
2023-03-17T05:31:31.042Z,6.13
2023-03-17T05:33:58.554Z,4.32
2023-03-17T05:36:25.119Z,5.90
2023-03-17T05:38:52.358Z,5.88
2023-03-17T05:41:18.980Z,5.32
2023-03-17T05:43:46.111Z,4.68
2023-03-17T05:46:12.996Z,5.45
2023-03-17T05:48:42.509Z,5.32
2023-03-17T05:51:09.339Z,5.82
2023-03-17T05:53:38.665Z,5.03
2023-03-17T05:56:06.567Z,6.57
2023-03-17T05:58:33.121Z,4.22
2023-03-17T06:00:59.753Z,5.78
2023-03-17T06:03:26.558Z,5.18
2023-03-17T06:05:53.179Z,4.43
2023-03-17T06:08:19.743Z,5.00
2023-03-17T06:10:47.353Z,3.55
2023-03-17T06:13:14.012Z,5.50
2023-03-17T06:15:42.173Z,4.80
2023-03-17T06:18:08.994Z,4.43
2023-03-17T06:20:36.632Z,4.45
2023-03-17T06:23:06.050Z,4.57
2023-03-17T06:25:35.097Z,4.93
2023-03-17T06:28:03.950Z,4.43
2023-03-17T06:30:34.729Z,6.22
2023-03-17T06:33:02.352Z,3.22
2023-03-17T06:35:30.454Z,4.10
2023-03-17T06:37:58.090Z,5.20
2023-03-17T06:40:24.872Z,3.67
2023-03-17T06:42:51.585Z,3.63
2023-03-17T06:45:18.444Z,4.80
2023-03-17T06:47:45.082Z,3.90
2023-03-17T06:50:12.291Z,3.75
2023-03-17T06:52:39.485Z,4.40
2023-03-17T06:55:07.183Z,3.85
2023-03-17T06:57:34.475Z,4.32
2023-03-17T07:00:01.113Z,3.15
2023-03-17T07:02:28.227Z,4.25
2023-03-17T07:04:55.109Z,3.33
2023-03-17T07:07:21.759Z,3.47
2023-03-17T07:09:48.285Z,3.50
2023-03-17T07:12:15.756Z,4.05
2023-03-17T07:14:42.450Z,4.32
2023-03-17T07:17:13.003Z,32.25
2023-03-17T07:19:39.920Z,26.20
2023-03-17T07:22:07.395Z,25.13
2023-03-17T07:24:34.440Z,22.92
2023-03-17T07:27:01.055Z,18.60
2023-03-17T07:29:29.322Z,16.92
2023-03-17T07:31:56.155Z,16.05
2023-03-17T07:34:23.181Z,14.30
2023-03-17T07:36:49.992Z,12.98
2023-03-17T07:39:16.752Z,12.95
2023-03-17T07:41:44.229Z,12.15
2023-03-17T07:44:11.489Z,12.85
2023-03-17T07:46:38.972Z,15.80
2023-03-17T07:49:06.257Z,13.98
2023-03-17T07:51:32.982Z,14.40
2023-03-17T07:54:03.881Z,14.98
2023-03-17T07:56:31.759Z,9.10
2023-03-17T07:58:59.139Z,11.23
2023-03-17T08:01:27.777Z,8.98
2023-03-17T08:03:55.660Z,10.57
2023-03-17T08:06:25.400Z,8.35
2023-03-17T08:08:54.954Z,9.02
2023-03-17T08:11:21.955Z,8.00
2023-03-17T08:13:48.599Z,7.35
2023-03-17T08:16:16.957Z,7.85
2023-03-17T08:18:44.087Z,9.10
2023-03-17T08:21:10.866Z,9.20
2023-03-17T08:23:37.541Z,7.55
2023-03-17T08:26:04.536Z,8.43
2023-03-17T08:28:31.854Z,6.28
2023-03-17T08:31:12.163Z,11.35
2023-03-17T08:33:40.617Z,7.70
2023-03-17T08:36:09.295Z,7.18
2023-03-17T08:38:37.444Z,9.18
2023-03-17T08:41:06.297Z,6.28
2023-03-17T08:43:33.857Z,8.45
2023-03-17T08:46:07.088Z,7.15
2023-03-17T08:48:36.477Z,7.38
2023-03-17T08:51:04.702Z,7.45
2023-03-17T08:53:34.989Z,6.75
2023-03-17T08:56:02.745Z,6.40
2023-03-17T08:58:29.455Z,6.32
2023-03-17T09:01:00.502Z,8.65
2023-03-17T09:03:27.494Z,6.55
2023-03-17T09:05:54.726Z,7.10
2023-03-17T09:08:21.982Z,6.88
2023-03-17T09:10:49.307Z,6.70
2023-03-17T09:13:16.293Z,5.78
2023-03-17T09:15:43.016Z,7.30
2023-03-17T09:18:10.520Z,6.63
2023-03-17T09:20:37.248Z,8.93
2023-03-17T09:23:08.485Z,5.63
2023-03-17T09:25:36.255Z,6.82
2023-03-17T09:28:03.704Z,8.80
2023-03-17T09:30:32.843Z,7.47
2023-03-17T09:33:00.732Z,7.07
2023-03-17T09:35:28.197Z,9.30
2023-03-17T09:37:55.647Z,11.60
2023-03-17T09:40:32.852Z,9.43
2023-03-17T09:43:18.546Z,11.65
2023-03-17T09:45:45.596Z,10.43
2023-03-17T09:48:37.424Z,10.50
2023-03-17T09:51:13.779Z,10.52
2023-03-17T09:53:55.153Z,20.90
2023-03-17T09:56:22.428Z,17.05
2023-03-17T09:58:53.061Z,18.38
2023-03-17T10:01:19.892Z,12.73
2023-03-17T10:03:47.453Z,11.57
2023-03-17T10:06:34.387Z,12.00
2023-03-17T10:09:03.124Z,9.55
2023-03-17T10:11:43.550Z,10.48
2023-03-17T10:14:28.603Z,20.05
2023-03-17T10:17:04.118Z,14.77
2023-03-17T10:19:34.805Z,18.25
2023-03-17T10:22:05.583Z,8.10
2023-03-17T10:24:32.993Z,8.32
2023-03-17T10:27:03.795Z,6.82
2023-03-17T10:29:32.048Z,10.73
2023-03-17T10:31:59.091Z,9.75
2023-03-17T10:34:29.382Z,7.28
2023-03-17T10:37:05.723Z,8.75
2023-03-17T10:39:33.101Z,5.85
2023-03-17T10:42:09.042Z,7.20
2023-03-17T10:44:44.913Z,6.47
2023-03-17T10:47:24.172Z,6.90
2023-03-17T10:49:52.521Z,8.07
2023-03-17T10:52:23.138Z,7.20
2023-03-17T10:54:53.108Z,6.30
2023-03-17T10:57:19.771Z,7.18
2023-03-17T10:59:53.702Z,9.30
2023-03-17T11:02:27.167Z,8.57
2023-03-17T11:05:04.125Z,14.85
2023-03-17T11:07:40.435Z,13.15
2023-03-17T11:10:23.831Z,14.27
2023-03-17T11:12:58.978Z,9.95
2023-03-17T11:15:29.507Z,8.15
2023-03-17T11:17:59.059Z,8.60
2023-03-17T11:20:46.377Z,7.40
2023-03-17T11:23:22.352Z,8.77
2023-03-17T11:25:55.684Z,8.00
2023-03-17T11:28:27.849Z,8.70
2023-03-17T11:30:54.393Z,8.85
2023-03-17T11:33:34.004Z,8.15
2023-03-17T11:36:27.083Z,7.13
2023-03-17T11:39:05.875Z,7.50
2023-03-17T11:41:46.223Z,8.52
2023-03-17T11:44:32.010Z,7.60
2023-03-17T11:47:12.590Z,5.68
2023-03-17T11:49:40.221Z,6.60
2023-03-17T11:52:16.410Z,6.50
2023-03-17T11:55:16.346Z,6.50
2023-03-17T11:58:06.695Z,8.32
2023-03-17T12:00:37.462Z,6.60
2023-03-17T12:03:04.464Z,6.10
2023-03-17T12:05:31.637Z,7.43
2023-03-17T12:08:23.453Z,6.20
2023-03-17T12:10:54.686Z,7.32
2023-03-17T12:14:00.308Z,5.20
2023-03-17T12:16:40.607Z,5.78
2023-03-17T12:19:20.642Z,4.95
2023-03-17T12:21:54.346Z,5.40
2023-03-17T12:24:32.731Z,4.45
2023-03-17T12:27:17.786Z,6.03
2023-03-17T12:29:54.418Z,5.25
2023-03-17T12:32:40.424Z,4.45
2023-03-17T12:35:22.319Z,5.18
2023-03-17T12:37:49.287Z,4.97
2023-03-17T12:40:20.771Z,4.18
2023-03-17T12:43:21.687Z,5.00
2023-03-17T12:45:58.935Z,4.53
2023-03-17T12:48:51.361Z,4.90
2023-03-17T12:51:31.594Z,5.15
2023-03-17T12:53:59.551Z,4.38
2023-03-17T12:56:30.363Z,4.65
2023-03-17T12:59:06.171Z,6.10
2023-03-17T13:01:38.584Z,4.78
2023-03-17T13:04:27.206Z,4.45
2023-03-17T13:07:04.075Z,4.97
2023-03-17T13:09:38.474Z,22.58
2023-03-17T13:12:29.385Z,22.55
2023-03-17T13:14:57.969Z,12.15
2023-03-17T13:17:25.598Z,11.18
2023-03-17T13:20:07.339Z,9.45
2023-03-17T13:22:55.828Z,8.45
2023-03-17T13:25:35.481Z,8.45
2023-03-17T13:28:23.890Z,9.25
2023-03-17T13:31:36.798Z,8.40
2023-03-17T13:34:13.246Z,7.97
2023-03-17T13:36:52.054Z,8.00
2023-03-17T13:39:24.630Z,7.95
2023-03-17T13:42:19.374Z,6.63
2023-03-17T13:45:08.676Z,9.07
2023-03-17T13:47:42.245Z,8.45
2023-03-17T13:50:24.934Z,6.28
2023-03-17T13:52:57.425Z,7.68
2023-03-17T13:55:24.098Z,6.38
2023-03-17T13:58:10.828Z,6.40
2023-03-17T14:00:43.920Z,5.53
2023-03-17T14:03:20.784Z,6.78
2023-03-17T14:05:49.593Z,5.88
2023-03-17T14:08:31.352Z,8.20
2023-03-17T14:11:00.664Z,5.72
2023-03-17T14:13:58.500Z,5.15
2023-03-17T14:16:28.643Z,5.93
2023-03-17T14:19:01.308Z,6.80
2023-03-17T14:21:33.081Z,5.32
2023-03-17T14:24:02.347Z,7.82
2023-03-17T14:26:30.922Z,9.98
2023-03-17T14:29:01.704Z,8.95
2023-03-17T14:31:29.289Z,10.77
2023-03-17T14:33:58.508Z,7.43
2023-03-17T14:36:27.006Z,6.45
2023-03-17T14:38:56.282Z,6.35
2023-03-17T14:41:25.439Z,8.13
2023-03-17T14:43:54.556Z,9.38
2023-03-17T14:46:23.600Z,7.05
2023-03-17T14:48:56.976Z,6.72
2023-03-17T14:51:27.984Z,7.97
2023-03-17T14:53:58.195Z,10.68
2023-03-17T14:56:29.798Z,9.85
2023-03-17T14:59:05.627Z,7.88
2023-03-17T15:01:49.785Z,10.60
2023-03-17T15:04:48.638Z,7.30
2023-03-17T15:07:39.677Z,9.02
2023-03-17T15:10:14.997Z,7.80
2023-03-17T15:12:41.870Z,8.02
2023-03-17T15:15:35.809Z,7.20
2023-03-17T15:18:13.179Z,8.35
2023-03-17T15:20:42.299Z,6.15
2023-03-17T15:23:20.149Z,6.88
2023-03-17T15:25:55.704Z,6.28
2023-03-17T15:28:25.731Z,6.63
2023-03-17T15:30:54.314Z,5.55
2023-03-17T15:33:22.402Z,5.72
2023-03-17T15:35:50.040Z,6.68
2023-03-17T15:38:16.747Z,6.88
2023-03-17T15:40:43.453Z,7.35
2023-03-17T15:43:18.129Z,5.85
2023-03-17T15:45:45.277Z,5.15
2023-03-17T15:48:26.502Z,7.20
2023-03-17T15:50:55.408Z,5.93
2023-03-17T15:53:22.223Z,4.65
2023-03-17T15:55:51.605Z,5.97
2023-03-17T15:58:18.212Z,6.68
2023-03-17T16:00:47.634Z,8.02
2023-03-17T16:03:31.285Z,5.32
2023-03-17T16:05:59.095Z,17.77
2023-03-17T16:08:25.703Z,11.82
2023-03-17T16:10:52.420Z,12.73
2023-03-17T16:13:19.464Z,9.65
2023-03-17T16:16:04.862Z,8.57
2023-03-17T16:18:34.195Z,10.07
2023-03-17T16:21:02.535Z,7.65
2023-03-17T16:23:31.627Z,7.07
2023-03-17T16:26:11.673Z,7.57
2023-03-17T16:28:41.765Z,7.57
2023-03-17T16:31:35.209Z,8.95
2023-03-17T16:34:02.028Z,9.25
2023-03-17T16:36:29.260Z,7.32
2023-03-17T16:38:55.976Z,5.43
2023-03-17T16:41:24.965Z,6.68
2023-03-17T16:43:59.432Z,5.68
2023-03-17T16:46:28.629Z,6.45
2023-03-17T16:48:56.216Z,6.93
2023-03-17T16:51:24.773Z,5.57
2023-03-17T16:53:51.583Z,7.38
2023-03-17T16:56:20.524Z,4.35
2023-03-17T16:58:47.704Z,5.72
2023-03-17T17:01:20.245Z,5.78
2023-03-17T17:03:47.212Z,4.20
2023-03-17T17:06:14.518Z,4.63
2023-03-17T17:08:45.698Z,4.40
2023-03-17T17:11:16.831Z,4.40
2023-03-17T17:13:45.420Z,4.65
2023-03-17T17:16:33.762Z,3.92
2023-03-17T17:19:00.589Z,4.80
2023-03-17T17:21:29.375Z,3.63
2023-03-17T17:23:56.253Z,4.43
2023-03-17T17:26:23.338Z,3.95
2023-03-17T17:28:50.127Z,3.97
2023-03-17T17:31:16.986Z,3.72
2023-03-17T17:33:43.587Z,5.07
2023-03-17T17:36:16.157Z,4.07
2023-03-17T17:38:43.172Z,5.15
2023-03-17T17:41:11.435Z,4.35
2023-03-17T17:43:38.350Z,3.67
2023-03-17T17:46:10.460Z,3.90
2023-03-17T17:48:37.140Z,4.22
2023-03-17T17:51:04.002Z,4.35
2023-03-17T17:53:30.942Z,3.40
2023-03-17T17:55:57.772Z,3.92
2023-03-17T17:58:25.277Z,4.00
2023-03-17T18:00:55.279Z,3.58
2023-03-17T18:03:25.104Z,5.18
2023-03-17T18:05:53.289Z,6.38
2023-03-17T18:08:20.521Z,4.55
2023-03-17T18:10:47.284Z,5.43
2023-03-17T18:13:13.887Z,4.47
2023-03-17T18:15:40.753Z,5.15
2023-03-17T18:18:13.715Z,5.63
2023-03-17T18:21:00.663Z,3.72
2023-03-17T18:23:28.015Z,4.40
2023-03-17T18:26:01.383Z,3.70
2023-03-17T18:28:36.743Z,4.85
2023-03-17T18:31:07.258Z,4.53
2023-03-17T18:33:34.009Z,4.82
2023-03-17T18:36:00.638Z,10.60
2023-03-17T18:38:27.337Z,10.60
2023-03-17T18:40:53.915Z,5.88
2023-03-17T18:43:21.999Z,5.43
2023-03-17T18:45:48.722Z,6.18
2023-03-17T18:48:15.412Z,9.75
2023-03-17T18:50:42.056Z,8.18
2023-03-17T18:53:08.628Z,6.30
2023-03-17T18:55:35.204Z,10.75
2023-03-17T18:58:01.764Z,8.57
2023-03-17T19:00:28.367Z,22.48
2023-03-17T19:02:55.059Z,8.30
2023-03-17T19:05:21.865Z,10.82
2023-03-17T19:07:48.557Z,7.90
2023-03-17T19:10:15.601Z,7.35
2023-03-17T19:12:44.087Z,9.18
2023-03-17T19:15:12.570Z,7.75
2023-03-17T19:17:40.241Z,7.97
2023-03-17T19:20:07.722Z,4.70
2023-03-17T19:22:34.910Z,7.32
2023-03-17T19:25:02.222Z,6.20
2023-03-17T19:27:28.839Z,5.95
2023-03-17T19:29:55.414Z,6.47
2023-03-17T19:32:22.025Z,5.82
2023-03-17T19:34:48.583Z,6.22
2023-03-17T19:37:15.882Z,4.93
2023-03-17T19:39:44.873Z,6.38
2023-03-17T19:42:12.555Z,6.25
2023-03-17T19:44:40.077Z,5.90
2023-03-17T19:47:08.262Z,4.65
2023-03-17T19:49:36.651Z,4.00
2023-03-17T19:52:04.646Z,4.82
2023-03-17T19:54:31.429Z,4.85
2023-03-17T19:56:58.071Z,6.47
2023-03-17T19:59:24.705Z,5.45
2023-03-17T20:01:51.343Z,4.47
2023-03-17T20:04:19.551Z,3.75
2023-03-17T20:06:55.151Z,4.95
2023-03-17T20:09:24.696Z,5.85
2023-03-17T20:11:52.412Z,6.13
2023-03-17T20:14:20.184Z,4.22
2023-03-17T20:16:47.778Z,5.18
2023-03-17T20:19:15.561Z,5.53
2023-03-17T20:21:42.617Z,5.38
2023-03-17T20:24:12.306Z,5.55
2023-03-17T20:26:39.703Z,3.97
2023-03-17T20:29:08.072Z,5.10
2023-03-17T20:31:34.985Z,5.53
2023-03-17T20:34:01.597Z,4.18
2023-03-17T20:36:28.144Z,3.95
2023-03-17T20:38:54.698Z,4.32
2023-03-17T20:41:21.432Z,5.75
2023-03-17T20:43:48.111Z,6.75
2023-03-17T20:46:19.753Z,3.90
2023-03-17T20:48:48.221Z,3.75
2023-03-17T20:51:16.851Z,3.95
2023-03-17T20:53:44.923Z,2.67
2023-03-17T20:56:15.382Z,4.50
2023-03-17T20:58:43.336Z,4.38
2023-03-17T21:01:12.808Z,6.60
2023-03-17T21:03:44.467Z,3.22
2023-03-17T21:06:11.428Z,5.00
2023-03-17T21:08:38.729Z,3.65
2023-03-17T21:11:06.975Z,3.70
2023-03-17T21:13:34.250Z,3.78
2023-03-17T21:16:01.508Z,3.30
2023-03-17T21:18:29.593Z,4.45
2023-03-17T21:20:56.932Z,3.97
2023-03-17T21:23:23.764Z,3.88
2023-03-17T21:26:02.071Z,4.40
2023-03-17T21:28:28.627Z,2.80
2023-03-17T21:30:55.199Z,3.40
2023-03-17T21:33:22.037Z,5.97
2023-03-17T21:35:48.811Z,4.07
2023-03-17T21:38:16.339Z,5.20
2023-03-17T21:40:43.138Z,3.47
2023-03-17T21:43:10.679Z,3.60
2023-03-17T21:45:37.823Z,3.20
2023-03-17T21:48:04.626Z,3.45
2023-03-17T21:50:31.612Z,3.13
2023-03-17T21:52:58.441Z,2.95
2023-03-17T21:55:25.348Z,2.90
2023-03-17T21:57:52.879Z,4.05
2023-03-17T22:00:19.809Z,2.55
2023-03-17T22:02:46.802Z,5.55
2023-03-17T22:05:13.715Z,3.08
2023-03-17T22:07:41.056Z,3.10
2023-03-17T22:10:08.535Z,3.42
2023-03-17T22:12:35.712Z,4.85
2023-03-17T22:15:02.795Z,3.05
2023-03-17T22:17:29.388Z,3.47
2023-03-17T22:19:56.166Z,2.90
2023-03-17T22:22:22.796Z,2.40
2023-03-17T22:24:49.565Z,4.82
2023-03-17T22:27:17.453Z,4.80
2023-03-17T22:29:44.633Z,4.75
2023-03-17T22:32:11.318Z,2.67
2023-03-17T22:34:38.082Z,3.42
2023-03-17T22:37:05.013Z,6.95
2023-03-17T22:39:31.653Z,3.97
2023-03-17T22:41:58.246Z,3.95
2023-03-17T22:44:24.821Z,3.55
2023-03-17T22:46:51.527Z,4.55
2023-03-17T22:49:18.083Z,3.45
2023-03-17T22:51:46.585Z,4.85
2023-03-17T22:54:13.199Z,14.57
2023-03-17T22:56:39.851Z,11.48
2023-03-17T22:59:06.672Z,10.60
2023-03-17T23:01:33.385Z,10.60
2023-03-17T23:04:00.147Z,7.32
2023-03-17T23:06:26.891Z,8.15
2023-03-17T23:08:53.522Z,6.75
2023-03-17T23:11:23.401Z,7.32
2023-03-17T23:13:51.366Z,7.25
2023-03-17T23:16:18.902Z,6.20
2023-03-17T23:18:47.078Z,6.30
2023-03-17T23:21:39.993Z,7.53
2023-03-17T23:24:08.498Z,5.93
2023-03-17T23:26:38.640Z,9.48
2023-03-17T23:29:07.098Z,7.40
2023-03-17T23:31:34.081Z,4.55
2023-03-17T23:34:00.708Z,4.78
2023-03-17T23:36:27.370Z,4.90
2023-03-17T23:38:54.020Z,7.03
2023-03-17T23:41:20.976Z,5.10
2023-03-17T23:43:47.606Z,6.38
2023-03-17T23:46:14.785Z,4.63
2023-03-17T23:48:44.551Z,5.03
2023-03-17T23:51:12.537Z,4.72
2023-03-17T23:53:39.684Z,5.28
2023-03-17T23:56:11.182Z,5.00
2023-03-17T23:58:37.983Z,6.57
